Etusivu
METAR-TAF:

METAR-TAF

Lentoasemat :

DeRidder, Louisiana, Yhdysvallat

Leveyspiiri: 30-49-54N, Pituuspiiri: 093-20-23W, korkeus merenpinnasta: 63 m

Tämänhetkinen sää

Tämä raportti tehtiin 20 minuuttia sitten, kello 14.55 UTC
Tuuli 15 kn etelästä puuskistuen 20 kn:hen
Lämpötila 28°C
Kosteus 66%
Ilmanpaine 1014 hPa
Näkyvyys: 16.1 km
Hajanaisia pilviä 2000 ft:n korkeudessa
Hajonneita pilviä 2600 ft:n korkeudessa
Hajonneita pilviä 3600 ft:n korkeudessa

METAR: KDRI 221455Z AUTO 17015G20KT 10SM SCT020 BKN026 BKN036 28/21 A2993 RMK AO2 T02810211

Aika: 10:15 (15:15 UTC)


TAF: puuttuu

Säähavainnot ja -ennusteet yli 4000 lentoasemalta (METAR- ja TAF-raportit).

Käytössä olevat sääasemat on merkitty karttaan keltaisilla ja punaisilla pisteillä.

Aseta hiiri pisteen päälle nähdäksesi sääaseman nimen.

Klikkaa sitten nähdäksesi säähavainnot ja -ennusteet.

Kartan vaihtaminen: klikkaa mustalla rastilla varustettuja vihreitä pisteitä, niin voit zoomata sisään; viivalla varustettua vihreää pistettä, niin voit zoomata ulos tai vihreitä nuolia, niin pääset viereisille kartoille.


METAR-TAF: